Terminal Aerodrome Forecast
Issued by NWS

Home | Current Version | Previous Version | Text Only | Print | Product List | Glossary On
Versions: 1 2 3 4 5 6 7 8 9 10 11 12 13 14 15 16 17 18 19 20 21 22 23 24 25 26 27 28 29
000
FTUS43 KFGF 170923 AAB
TAFTVF
TAF AMD
KTVF 170923Z 1709/1806 21010KT 3/4SM -SN BR OVC001
     FM171200 21008KT 2SM BR OVC003
     FM171400 21007KT P6SM SCT020
     FM171800 22007KT P6SM SCT200=

USA.gov is the U.S. government's official web portal to all federal, state and local government web resources and services.